Time;durP1;ratioP1;P1;durP2;ratioP2;P2;SDS_P1;SDS_P2;PMS_P1;PMS_P2;Temp;Humidity;BMP_temperature;BMP_pressure;BME280_temperature;BME280_humidity;BME280_pressure;Samples;Min_cycle;Max_cycle;Signal;HPM_P1;HPM_P2
2023/08/05 00:01:17;;;;;;;4.77;3.30;;;14.60;99.90;;;15.58;100.00;98155.28;5022742;28;20468;-82
2023/08/05 00:03:48;;;;;;;5.63;3.17;;;14.60;99.90;;;15.48;100.00;98155.75;5020142;28;20465;-82
2023/08/05 00:06:20;;;;;;;4.23;3.50;;;14.60;99.90;;;15.44;100.00;98156.38;5022732;28;20487;-82
2023/08/05 00:08:49;;;;;;;6.80;3.40;;;14.50;99.90;;;15.45;100.00;98166.69;5021232;28;20480;-82
2023/08/05 00:11:19;;;;;;;4.37;3.47;;;14.50;99.90;;;15.42;100.00;98159.22;5018751;28;21000;-82
2023/08/05 00:13:49;;;;;;;4.37;3.10;;;14.50;99.90;;;15.38;100.00;98165.94;5020079;28;20470;-82
2023/08/05 00:16:19;;;;;;;7.87;3.33;;;14.50;99.90;;;15.39;100.00;98158.84;5018752;28;20497;-82
2023/08/05 00:18:48;;;;;;;8.97;3.83;;;14.50;99.90;;;15.38;100.00;98159.84;5023074;28;20464;-82
2023/08/05 00:21:20;;;;;;;5.00;2.90;;;14.40;99.90;;;15.37;100.00;98158.25;5034683;28;20474;-82
2023/08/05 00:23:50;;;;;;;6.47;3.20;;;14.40;99.90;;;15.33;100.00;98151.78;5020798;28;20457;-82
2023/08/05 00:26:20;;;;;;;4.70;3.17;;;14.40;99.90;;;15.30;100.00;98147.75;5019462;28;21204;-82
2023/08/05 00:28:51;;;;;;;10.73;3.97;;;14.40;99.90;;;15.28;100.00;98155.06;5020342;28;20462;-82
2023/08/05 00:31:21;;;;;;;4.03;2.67;;;14.40;99.90;;;15.24;100.00;98153.09;5020046;28;21131;-82
2023/08/05 00:33:52;;;;;;;5.43;3.07;;;14.30;99.90;;;15.24;100.00;98153.88;5019845;28;20467;-82
2023/08/05 00:36:23;;;;;;;5.40;3.60;;;14.30;99.90;;;15.22;100.00;98153.28;5020504;28;20458;-82
2023/08/05 00:38:53;;;;;;;5.00;3.27;;;14.30;99.90;;;15.14;100.00;98156.16;5022456;28;20466;-82
2023/08/05 00:41:22;;;;;;;10.63;3.50;;;14.30;99.90;;;15.15;100.00;98156.97;5022835;28;20473;-82
2023/08/05 00:43:51;;;;;;;15.90;3.43;;;14.20;99.90;;;15.17;100.00;98166.28;5022227;28;20497;-82
2023/08/05 00:46:23;;;;;;;6.03;3.00;;;14.20;99.90;;;15.14;100.00;98161.44;5022955;28;20835;-82
2023/08/05 00:48:54;;;;;;;7.30;2.60;;;14.20;99.90;;;15.06;100.00;98169.63;5021456;28;20548;-82
2023/08/05 00:51:27;;;;;;;4.63;2.50;;;14.30;99.90;;;15.07;100.00;98171.22;5021548;28;20482;-82
2023/08/05 00:53:56;;;;;;;3.30;2.43;;;14.20;99.90;;;15.05;100.00;98181.16;5023654;28;20550;-82
2023/08/05 00:56:26;;;;;;;2.90;2.60;;;14.20;99.90;;;15.02;100.00;98181.59;5021019;28;20467;-82
2023/08/05 00:58:56;;;;;;;5.40;3.00;;;14.10;99.90;;;15.02;100.00;98189.50;5022687;28;20519;-82
2023/08/05 01:01:26;;;;;;;3.13;2.20;;;14.00;99.90;;;15.02;100.00;98186.84;5022972;28;20467;-82
2023/08/05 01:03:56;;;;;;;6.40;2.83;;;14.00;99.90;;;14.98;100.00;98190.94;5023469;28;20466;-83
2023/08/05 01:06:28;;;;;;;8.30;3.00;;;14.10;99.90;;;14.85;100.00;98181.28;5022969;28;20463;-82
2023/08/05 01:08:59;;;;;;;5.60;2.77;;;14.00;99.90;;;14.80;100.00;98182.91;5024393;28;20457;-82
2023/08/05 01:11:28;;;;;;;9.80;2.93;;;14.00;99.90;;;14.76;100.00;98181.72;5022118;28;20519;-82
2023/08/05 01:13:59;;;;;;;9.00;2.10;;;14.00;99.90;;;14.74;100.00;98194.28;5022390;28;20470;-82
2023/08/05 01:16:28;;;;;;;6.70;2.63;;;14.00;99.90;;;14.72;100.00;98186.59;5021195;28;20973;-82
2023/08/05 01:19:04;;;;;;;7.80;2.70;;;13.90;99.90;;;14.70;100.00;98188.63;5020147;28;20544;-82
2023/08/05 01:21:58;;;;;;;9.00;2.30;;;13.90;99.90;;;14.76;100.00;98179.09;5023163;28;20470;-82
2023/08/05 01:24:39;;;;;;;3.00;2.50;;;13.90;99.90;;;14.74;100.00;98167.97;5022641;28;20466;-81
2023/08/05 01:27:12;;;;;;;4.67;2.60;;;13.80;99.90;;;14.69;100.00;98184.38;5021800;28;20493;-82
2023/08/05 01:29:42;;;;;;;7.53;2.33;;;13.80;99.90;;;14.69;100.00;98186.19;5020882;28;20454;-82
2023/08/05 01:32:15;;;;;;;14.90;2.40;;;13.80;99.90;;;14.62;100.00;98180.97;5023504;28;20551;-82
2023/08/05 01:34:47;;;;;;;5.60;2.30;;;13.70;99.90;;;14.63;100.00;98176.53;5022384;28;20488;-82
2023/08/05 01:37:17;;;;;;;26.30;2.53;;;13.70;99.90;;;14.63;100.00;98161.53;5019699;28;20885;-82
2023/08/05 01:39:50;;;;;;;7.77;2.50;;;13.70;99.90;;;14.63;100.00;98161.53;5018967;28;20483;-82
2023/08/05 01:42:21;;;;;;;4.97;2.63;;;13.60;99.90;;;14.64;100.00;98157.91;5020460;28;20490;-82
2023/08/05 01:44:52;;;;;;;8.50;2.40;;;13.70;99.90;;;14.51;100.00;98171.91;5019932;28;20458;-82
2023/08/05 01:47:22;;;;;;;5.70;2.67;;;13.70;99.90;;;14.46;100.00;98168.28;5021966;28;21013;-82
2023/08/05 01:49:52;;;;;;;4.50;2.00;;;13.70;99.90;;;14.45;100.00;98156.97;5019981;28;20952;-82
2023/08/05 01:52:21;;;;;;;2.90;2.50;;;13.60;99.90;;;14.46;100.00;98150.69;5021053;28;20953;-82
2023/08/05 01:54:51;;;;;;;6.03;2.80;;;13.70;99.90;;;14.48;100.00;98159.16;5023729;28;20516;-82
2023/08/05 01:57:22;;;;;;;6.17;3.30;;;13.70;99.90;;;14.43;100.00;98151.09;5019660;28;20533;-82
2023/08/05 01:59:51;;;;;;;4.63;2.87;;;13.70;99.90;;;14.47;100.00;98146.22;5020583;28;21099;-82
2023/08/05 02:02:21;;;;;;;8.80;3.73;;;13.60;99.90;;;14.50;100.00;98144.00;5020449;28;21057;-81
2023/08/05 02:04:52;;;;;;;5.10;2.80;;;13.60;99.90;;;14.49;100.00;98138.94;5022063;28;20858;-82
2023/08/05 02:07:22;;;;;;;7.20;3.10;;;13.60;99.90;;;14.53;100.00;98145.38;5019982;28;20466;-82
2023/08/05 02:09:52;;;;;;;6.87;2.47;;;13.60;99.90;;;14.57;100.00;98138.69;5021776;28;20453;-82
2023/08/05 02:12:22;;;;;;;4.27;3.13;;;13.60;99.90;;;14.54;100.00;98139.91;5020487;28;20494;-82
2023/08/05 02:14:51;;;;;;;5.90;3.00;;;13.60;99.90;;;14.48;100.00;98138.13;5022430;28;20851;-82
2023/08/05 02:17:20;;;;;;;12.03;2.90;;;13.60;99.90;;;14.42;100.00;98128.44;5020929;28;20458;-82
2023/08/05 02:19:48;;;;;;;3.20;2.40;;;13.70;99.90;;;14.43;100.00;98124.78;5021978;28;20465;-81
2023/08/05 02:22:18;;;;;;;5.00;2.73;;;13.60;99.90;;;14.43;100.00;98132.69;5022189;28;20991;-82
2023/08/05 02:24:47;;;;;;;4.23;2.90;;;13.60;99.90;;;14.42;100.00;98131.06;5020909;28;20588;-82
2023/08/05 02:27:18;;;;;;;8.50;2.80;;;13.50;99.90;;;14.39;100.00;98125.41;5018976;28;20470;-82
2023/08/05 02:29:49;;;;;;;5.40;2.50;;;13.50;99.90;;;14.40;100.00;98121.78;5021070;28;20511;-82
2023/08/05 02:32:19;;;;;;;4.10;2.67;;;13.50;99.90;;;14.36;100.00;98121.38;5020677;28;20596;-82
2023/08/05 02:34:47;;;;;;;8.20;2.13;;;13.50;99.90;;;14.37;100.00;98109.81;5022237;28;20465;-82
2023/08/05 02:37:16;;;;;;;7.50;2.60;;;13.50;99.90;;;14.37;100.00;98104.56;5020926;28;20462;-82
2023/08/05 02:39:47;;;;;;;1.90;1.73;;;13.40;99.90;;;14.39;100.00;98102.53;5020279;28;20559;-82
2023/08/05 02:42:17;;;;;;;3.60;2.23;;;13.50;99.90;;;14.38;100.00;98103.56;5019505;28;20556;-82
2023/08/05 02:44:48;;;;;;;3.13;2.03;;;13.40;99.90;;;14.39;100.00;98107.00;5020103;28;20470;-82
2023/08/05 02:47:19;;;;;;;2.20;2.00;;;13.40;99.90;;;14.35;100.00;98101.34;5022107;28;20490;-82
2023/08/05 02:49:48;;;;;;;5.03;3.53;;;13.40;99.90;;;14.30;100.00;98098.50;5020433;28;20513;-82
2023/08/05 02:52:18;;;;;;;2.50;2.10;;;13.40;99.90;;;14.24;100.00;98094.06;5019457;28;20993;-81
2023/08/05 02:54:47;;;;;;;2.13;1.93;;;13.30;99.90;;;14.21;100.00;98112.09;5022935;28;20466;-82
2023/08/05 02:57:17;;;;;;;4.20;1.97;;;13.20;99.90;;;14.22;100.00;98111.91;5022938;28;20534;-82
2023/08/05 02:59:49;;;;;;;5.33;2.50;;;13.30;99.90;;;14.13;100.00;98107.09;5022416;28;20472;-82
2023/08/05 03:02:18;;;;;;;8.30;2.13;;;13.30;99.90;;;14.13;100.00;98106.03;5017208;28;20521;-82
2023/08/05 03:04:47;;;;;;;2.10;1.90;;;13.20;99.90;;;14.13;100.00;98098.16;5020335;28;20963;-82
2023/08/05 03:07:17;;;;;;;16.50;2.60;;;13.20;99.90;;;14.15;100.00;98097.97;5018975;28;20461;-83
2023/08/05 03:09:46;;;;;;;2.30;2.10;;;13.20;99.90;;;14.17;100.00;98098.56;5017129;28;20470;-82
2023/08/05 03:12:15;;;;;;;6.50;2.70;;;13.30;99.90;;;14.18;100.00;98089.66;5018540;28;20899;-82
2023/08/05 03:14:45;;;;;;;6.20;2.87;;;13.20;99.90;;;14.15;100.00;98084.81;5022838;28;20477;-81
2023/08/05 03:17:17;;;;;;;3.00;2.70;;;13.20;99.90;;;14.11;100.00;98084.41;5024174;28;21056;-82
2023/08/05 03:19:51;;;;;;;6.60;2.60;;;13.10;99.90;;;14.10;100.00;98090.69;5035201;28;20474;-82
2023/08/05 03:22:21;;;;;;;17.60;3.07;;;13.10;99.90;;;14.11;100.00;98086.25;5021247;28;20465;-81
2023/08/05 03:24:52;;;;;;;4.63;2.50;;;13.10;99.90;;;14.12;100.00;98090.50;5023722;28;20470;-82
2023/08/05 03:27:23;;;;;;;14.30;3.00;;;13.10;99.90;;;14.12;100.00;98085.22;5021094;28;20465;-82
2023/08/05 03:29:53;;;;;;;3.13;2.83;;;13.10;99.90;;;14.10;100.00;98097.75;5022923;28;20457;-81
2023/08/05 03:32:25;;;;;;;9.53;2.40;;;13.10;99.90;;;14.09;100.00;98102.22;5022517;28;21270;-81
2023/08/05 03:34:55;;;;;;;23.80;3.00;;;13.10;99.90;;;14.12;100.00;98108.91;5022086;28;20496;-83
2023/08/05 03:37:24;;;;;;;6.50;2.67;;;13.10;99.90;;;14.11;100.00;98107.28;5023757;28;20799;-83
2023/08/05 03:39:55;;;;;;;8.17;2.80;;;13.10;99.90;;;14.09;100.00;98115.38;5024764;28;20466;-82
2023/08/05 03:42:24;;;;;;;5.73;2.90;;;13.10;99.90;;;14.04;100.00;98114.38;5021487;28;20478;-87
2023/08/05 03:44:55;;;;;;;18.30;10.97;;;13.00;99.90;;;14.03;100.00;98112.75;5025045;28;20467;-83
2023/08/05 03:47:29;;;;;;;7.00;2.37;;;13.00;99.90;;;14.00;100.00;98121.88;5024126;28;20458;-83
2023/08/05 03:49:59;;;;;;;4.13;2.07;;;13.00;99.90;;;13.93;100.00;98107.94;5024822;28;20839;-82
2023/08/05 03:52:30;;;;;;;5.23;1.97;;;13.10;99.90;;;13.96;100.00;98109.34;5022798;28;20504;-83
2023/08/05 03:55:01;;;;;;;6.10;2.20;;;13.00;99.90;;;13.96;100.00;98111.97;5024150;28;20466;-83
2023/08/05 03:57:32;;;;;;;15.03;2.57;;;13.00;99.90;;;13.95;100.00;98110.38;5020465;28;20972;-82
2023/08/05 04:00:02;;;;;;;5.90;2.17;;;13.00;99.90;;;13.97;100.00;98108.34;5023585;28;20473;-84
2023/08/05 04:02:34;;;;;;;2.57;2.20;;;13.00;99.90;;;13.95;100.00;98113.00;5022905;28;20512;-83
2023/08/05 04:05:07;;;;;;;5.30;2.10;;;13.00;99.90;;;13.91;100.00;98114.44;5021374;28;20462;-85
2023/08/05 04:07:36;;;;;;;6.63;2.53;;;12.90;99.90;;;13.88;100.00;98114.84;5022578;28;20461;-82
2023/08/05 04:10:07;;;;;;;2.20;2.00;;;13.00;99.90;;;13.88;100.00;98114.84;5023082;28;20463;-82
2023/08/05 04:12:36;;;;;;;2.20;2.00;;;12.90;99.90;;;13.82;100.00;98118.28;5021520;28;21020;-83
2023/08/05 04:15:11;;;;;;;6.03;2.13;;;12.90;99.90;;;13.80;100.00;98118.50;5021507;28;20470;-81
2023/08/05 04:17:44;;;;;;;9.03;2.77;;;12.80;99.90;;;13.77;100.00;98118.09;5021472;28;20451;-82
2023/08/05 04:20:13;;;;;;;12.23;2.27;;;12.80;99.90;;;13.79;100.00;98116.06;5020782;28;20542;-82
2023/08/05 04:22:48;;;;;;;3.23;2.53;;;12.80;99.90;;;13.82;100.00;98123.53;5023275;28;20512;-82
2023/08/05 04:25:18;;;;;;;2.70;2.20;;;12.80;99.90;;;13.85;100.00;98120.50;5021825;28;20543;-82
2023/08/05 04:27:48;;;;;;;2.40;1.97;;;12.80;99.90;;;13.81;100.00;98119.31;5022196;28;20474;-82
2023/08/05 04:30:18;;;;;;;4.90;2.13;;;12.80;99.90;;;13.76;100.00;98121.72;5023836;28;20468;-81
2023/08/05 04:32:50;;;;;;;2.40;1.90;;;12.70;99.90;;;13.75;100.00;98126.16;5025001;28;20503;-81
2023/08/05 04:35:19;;;;;;;8.13;3.93;;;12.70;99.90;;;13.74;100.00;98124.56;5020717;28;20519;-84
2023/08/05 04:37:49;;;;;;;2.97;2.67;;;12.80;99.90;;;13.73;100.00;98135.28;5019266;28;20958;-82
2023/08/05 04:40:20;;;;;;;3.70;2.13;;;12.70;99.90;;;13.73;100.00;98133.47;5018464;28;20490;-83
2023/08/05 04:42:50;;;;;;;23.17;11.40;;;12.80;99.90;;;13.66;100.00;98143.19;5021701;28;20902;-83
2023/08/05 04:45:20;;;;;;;6.40;2.80;;;12.80;99.90;;;13.65;100.00;98140.75;5023004;28;20449;-82
2023/08/05 04:47:51;;;;;;;12.07;2.67;;;12.80;99.90;;;13.61;100.00;98140.34;5019693;28;20466;-83
2023/08/05 04:50:22;;;;;;;11.93;2.53;;;12.70;99.90;;;13.65;100.00;98130.22;5022439;28;20458;-83
2023/08/05 04:52:51;;;;;;;8.73;2.33;;;12.70;99.90;;;13.58;100.00;98136.31;5025465;28;20493;-83
2023/08/05 04:55:21;;;;;;;3.63;2.30;;;12.50;99.90;;;13.53;100.00;98138.75;5026616;28;20462;-83
2023/08/05 04:57:53;;;;;;;15.17;2.10;;;12.50;99.90;;;13.45;100.00;98144.19;5024527;28;20538;-83
2023/08/05 05:00:25;;;;;;;2.57;1.80;;;12.40;99.90;;;13.47;100.00;98144.78;5023741;28;20474;-83
2023/08/05 05:02:57;;;;;;;13.27;2.17;;;12.40;99.90;;;13.48;100.00;98145.59;5022679;28;20490;-83
2023/08/05 05:05:28;;;;;;;6.63;2.23;;;12.40;99.90;;;13.49;100.00;98137.53;5023123;28;20884;-83
2023/08/05 05:07:59;;;;;;;8.20;2.20;;;12.60;99.90;;;13.49;100.00;98132.28;5024086;28;20469;-83
2023/08/05 05:10:29;;;;;;;4.93;2.17;;;12.70;99.90;;;13.45;100.00;98131.06;5024067;28;20995;-82
2023/08/05 05:12:59;;;;;;;5.13;2.63;;;12.80;99.90;;;13.43;100.00;98132.28;5025818;28;20502;-83
2023/08/05 05:15:31;;;;;;;11.90;2.57;;;12.80;99.90;;;13.41;100.00;98142.16;5024540;28;20473;-83
2023/08/05 05:18:02;;;;;;;9.17;3.43;;;12.90;99.90;;;13.45;100.00;98128.44;5023287;28;20469;-83
2023/08/05 05:20:33;;;;;;;2.40;2.20;;;12.80;99.90;;;13.50;100.00;98120.75;5022465;28;20528;-83
2023/08/05 05:23:03;;;;;;;3.50;2.43;;;12.60;99.90;;;13.47;100.00;98120.34;5023620;28;20458;-83
2023/08/05 05:25:33;;;;;;;2.37;1.90;;;12.50;99.90;;;13.39;100.00;98116.13;5023102;28;20568;-83
2023/08/05 05:28:03;;;;;;;16.30;2.90;;;12.50;99.90;;;13.33;100.00;98116.13;5022172;28;20470;-84
2023/08/05 05:30:32;;;;;;;25.57;2.80;;;12.40;99.90;;;13.28;100.00;98114.09;5023642;28;20465;-82
2023/08/05 05:33:02;;;;;;;4.07;2.10;;;12.40;99.90;;;13.29;100.00;98107.84;5023837;28;20859;-83
2023/08/05 05:35:32;;;;;;;5.80;2.37;;;12.50;99.90;;;13.35;100.00;98109.66;5024460;28;21053;-83
2023/08/05 05:38:02;;;;;;;4.43;2.60;;;12.50;99.90;;;13.44;100.00;98112.88;5023875;28;20473;-83
2023/08/05 05:40:32;;;;;;;4.63;2.40;;;12.60;99.90;;;13.49;100.00;98113.09;5023878;28;20458;-83
2023/08/05 05:43:02;;;;;;;14.53;2.23;;;12.70;99.90;;;13.45;100.00;98117.94;5025525;28;20482;-83
2023/08/05 05:45:33;;;;;;;4.13;2.07;;;12.80;99.90;;;13.47;100.00;98120.34;5025509;28;20516;-83
2023/08/05 05:48:06;;;;;;;16.93;2.30;;;12.80;99.90;;;13.52;100.00;98116.09;5024362;28;20450;-83
2023/08/05 05:50:41;;;;;;;1.60;1.50;;;12.80;99.90;;;13.58;100.00;98110.03;5021414;28;20466;-85
2023/08/05 05:53:13;;;;;;;2.40;2.07;;;12.80;99.90;;;13.59;100.00;98101.16;5022910;28;20504;-83
2023/08/05 05:55:45;;;;;;;1.80;1.70;;;12.70;99.90;;;13.56;100.00;98085.78;5022548;28;20983;-83
2023/08/05 05:58:15;;;;;;;7.07;2.20;;;12.70;99.90;;;13.56;100.00;98075.28;5020671;28;20470;-83
2023/08/05 06:00:45;;;;;;;2.30;2.10;;;12.60;99.90;;;13.53;100.00;98067.81;5023014;28;20461;-83
2023/08/05 06:03:17;;;;;;;4.70;1.80;;;12.70;99.90;;;13.58;100.00;98062.72;5021876;28;20466;-82
2023/08/05 06:05:50;;;;;;;2.20;2.00;;;12.70;99.90;;;13.61;100.00;98064.94;5025108;28;20469;-82
2023/08/05 06:08:20;;;;;;;3.90;1.93;;;12.70;99.90;;;13.67;100.00;98057.28;5021714;28;20839;-83
2023/08/05 06:10:51;;;;;;;3.33;2.53;;;12.80;99.90;;;13.77;100.00;98055.00;5021697;28;20470;-83
2023/08/05 06:13:21;;;;;;;2.43;2.23;;;12.90;99.90;;;13.83;100.00;98057.63;5024794;28;20502;-83
2023/08/05 06:15:54;;;;;;;2.20;2.00;;;13.00;99.90;;;13.93;100.00;98049.28;5021542;28;20473;-83
2023/08/05 06:18:26;;;;;;;5.37;2.37;;;13.10;99.90;;;13.94;100.00;98056.16;5021904;28;20458;-83
2023/08/05 06:20:55;;;;;;;2.17;1.97;;;13.20;99.90;;;13.96;100.00;98060.19;5025069;28;20470;-83
2023/08/05 06:23:25;;;;;;;3.60;2.37;;;13.30;99.90;;;14.05;100.00;98068.66;5038026;28;20473;-84
2023/08/05 06:25:54;;;;;;;7.10;1.93;;;13.30;99.90;;;14.07;100.00;98071.88;5022045;28;20533;-83
2023/08/05 06:28:24;;;;;;;3.77;2.67;;;13.30;99.90;;;14.13;100.00;98080.78;5022386;28;21020;-83
2023/08/05 06:30:57;;;;;;;5.10;2.40;;;13.40;99.90;;;14.15;100.00;98076.94;5023178;28;20459;-83
2023/08/05 06:33:29;;;;;;;3.07;2.60;;;13.30;99.90;;;14.15;100.00;98076.94;5023070;28;20491;-83
2023/08/05 06:35:59;;;;;;;2.40;2.20;;;13.40;99.90;;;14.20;100.00;98073.66;5024247;28;20464;-83
2023/08/05 06:38:28;;;;;;;2.67;2.30;;;13.40;99.90;;;14.24;100.00;98075.66;5024710;28;20465;-83
2023/08/05 06:40:59;;;;;;;3.07;2.50;;;13.40;99.90;;;14.26;100.00;98071.00;5022019;28;20541;-83
2023/08/05 06:43:29;;;;;;;3.10;2.40;;;13.40;99.90;;;14.28;100.00;98071.59;5023224;28;20631;-83
2023/08/05 06:45:59;;;;;;;9.70;2.20;;;13.50;99.90;;;14.28;100.00;98078.69;5027034;28;20500;-83
2023/08/05 06:48:31;;;;;;;4.13;1.90;;;13.60;99.90;;;14.34;100.00;98073.41;5027298;28;20462;-83
2023/08/05 06:51:01;;;;;;;2.77;2.03;;;13.50;99.90;;;14.35;100.00;98069.78;5027916;28;20463;-83
2023/08/05 06:53:32;;;;;;;3.53;2.67;;;13.50;99.90;;;14.34;100.00;98062.88;5025716;28;20497;-84
2023/08/05 06:56:02;;;;;;;3.53;2.60;;;13.60;99.90;;;14.38;100.00;98068.53;5025901;28;20458;-83
2023/08/05 06:58:32;;;;;;;7.00;2.50;;;13.70;99.90;;;14.44;100.00;98065.06;5025919;28;20461;-83
2023/08/05 07:01:02;;;;;;;2.73;2.40;;;13.60;99.90;;;14.48;100.00;98059.16;5028294;28;20984;-83
2023/08/05 07:03:34;;;;;;;3.20;2.43;;;13.70;99.90;;;14.49;100.00;98055.53;5028664;28;20559;-83
2023/08/05 07:06:03;;;;;;;4.07;2.60;;;13.80;99.90;;;14.55;100.00;98059.94;5028353;28;20457;-83
2023/08/05 07:08:35;;;;;;;2.83;2.07;;;13.90;99.90;;;14.60;100.00;98046.97;5028559;28;20454;-84
2023/08/05 07:11:05;;;;;;;2.87;2.47;;;13.90;99.90;;;14.69;100.00;98044.06;5026491;28;20461;-83
2023/08/05 07:13:35;;;;;;;3.17;2.23;;;13.90;99.90;;;14.75;100.00;98046.66;5027647;28;20549;-83
2023/08/05 07:16:07;;;;;;;4.30;2.63;;;14.00;99.90;;;14.82;100.00;98039.50;5026781;28;20494;-83
2023/08/05 07:18:40;;;;;;;3.80;2.70;;;14.00;99.90;;;14.87;100.00;98037.06;5026032;28;20988;-83
2023/08/05 07:21:10;;;;;;;3.07;2.40;;;14.10;99.90;;;14.94;100.00;98039.63;5028940;28;20494;-83
2023/08/05 07:23:41;;;;;;;3.77;2.83;;;14.20;99.90;;;14.99;100.00;98029.28;5028657;28;20469;-83
2023/08/05 07:26:11;;;;;;;3.30;2.80;;;14.20;99.90;;;15.06;100.00;98030.81;5027237;28;20471;-81
2023/08/05 07:28:42;;;;;;;5.43;3.23;;;14.30;99.90;;;15.13;100.00;98020.25;5025794;28;20465;-82
2023/08/05 07:31:12;;;;;;;5.07;3.40;;;14.30;99.90;;;15.18;100.00;98027.47;5027950;28;20465;-82
2023/08/05 07:33:46;;;;;;;2.97;2.67;;;14.40;99.90;;;15.25;100.00;98023.75;5026681;28;20567;-83
2023/08/05 07:36:16;;;;;;;6.47;3.27;;;14.50;99.90;;;15.31;100.00;98017.63;5026324;28;20547;-83
2023/08/05 07:38:46;;;;;;;4.00;2.93;;;14.50;99.90;;;15.40;100.00;98018.97;5026843;28;20453;-83
2023/08/05 07:41:16;;;;;;;5.13;2.83;;;14.60;99.90;;;15.48;100.00;98012.59;5026551;28;21028;-83
2023/08/05 07:43:46;;;;;;;10.50;3.13;;;14.70;99.90;;;15.54;100.00;98009.94;5025063;28;20461;-83
2023/08/05 07:46:19;;;;;;;3.20;2.70;;;14.80;99.90;;;15.64;100.00;98008.59;5025617;28;20541;-82
2023/08/05 07:48:52;;;;;;;2.90;2.27;;;14.90;99.90;;;15.72;100.00;97995.94;5025796;28;20465;-83
2023/08/05 07:51:23;;;;;;;3.00;2.63;;;15.00;99.90;;;15.79;100.00;97998.50;5025741;28;20898;-81
2023/08/05 07:53:53;;;;;;;3.90;2.60;;;15.10;99.90;;;15.84;100.00;97988.06;5022724;28;20485;-84
2023/08/05 07:56:23;;;;;;;3.70;2.17;;;15.10;99.90;;;15.90;100.00;97982.72;5025576;28;20485;-82
2023/08/05 07:58:53;;;;;;;3.57;2.47;;;15.20;99.90;;;15.95;100.00;97980.22;5025220;28;20473;-82
2023/08/05 08:01:22;;;;;;;3.80;2.50;;;15.20;99.90;;;16.02;100.00;97977.50;5026169;28;20464;-82
2023/08/05 08:03:56;;;;;;;8.20;2.43;;;15.30;99.90;;;16.09;100.00;97975.56;5023478;28;20465;-85
2023/08/05 08:06:26;;;;;;;3.70;2.10;;;15.40;99.90;;;16.14;100.00;97970.41;5024935;28;20466;-82
2023/08/05 08:08:56;;;;;;;4.17;2.50;;;15.50;99.90;;;16.21;100.00;97959.81;5022507;28;20485;-83
2023/08/05 08:11:26;;;;;;;4.93;2.10;;;15.50;99.90;;;16.28;100.00;97961.28;5025289;28;20541;-83
2023/08/05 08:13:56;;;;;;;3.50;1.70;;;15.60;99.90;;;16.32;100.00;97959.81;5023747;28;20493;-82
2023/08/05 08:16:25;;;;;;;4.53;2.27;;;15.60;99.90;;;16.38;100.00;97961.53;5024501;28;20470;-82
2023/08/05 08:18:57;;;;;;;2.00;1.90;;;15.70;99.90;;;16.45;100.00;97959.63;5024979;28;20544;-82
2023/08/05 08:21:27;;;;;;;1.90;1.67;;;15.70;99.90;;;16.52;100.00;97957.69;5024221;28;20458;-82
2023/08/05 08:23:57;;;;;;;9.53;2.10;;;15.80;99.90;;;16.61;100.00;97950.28;5025399;28;20527;-83
2023/08/05 08:26:26;;;;;;;2.23;2.03;;;15.90;99.90;;;16.72;100.00;97948.69;5026330;28;20516;-82
2023/08/05 08:28:56;;;;;;;6.33;2.10;;;16.00;99.90;;;16.83;100.00;97955.81;5024375;28;21320;-83
2023/08/05 08:31:29;;;;;;;5.13;1.87;;;16.10;99.90;;;16.94;100.00;97949.72;5025116;28;20988;-83
2023/08/05 08:34:01;;;;;;;4.60;1.90;;;16.20;99.90;;;17.02;100.00;97947.53;5022495;28;20551;-82
2023/08/05 08:36:30;;;;;;;4.53;1.50;;;16.40;99.90;;;17.12;100.00;97941.66;5023602;28;20553;-83
2023/08/05 08:38:59;;;;;;;1.70;1.30;;;16.40;99.90;;;17.18;100.00;97938.09;5024200;28;20532;-83
2023/08/05 08:41:33;;;;;;;1.57;1.47;;;16.40;99.90;;;17.23;100.00;97938.22;5023737;28;20490;-82
2023/08/05 08:44:06;;;;;;;1.60;1.33;;;16.60;99.90;;;17.31;100.00;97934.44;5023514;28;20470;-82
2023/08/05 08:46:36;;;;;;;1.60;1.40;;;16.70;99.90;;;17.39;100.00;97942.00;5024873;28;20469;-82
2023/08/05 08:49:09;;;;;;;2.60;1.53;;;16.80;99.90;;;17.46;100.00;97940.00;5025366;28;20477;-82
2023/08/05 08:51:39;;;;;;;9.03;1.50;;;16.80;99.90;;;17.52;100.00;97931.97;5023398;28;20883;-82
2023/08/05 08:54:10;;;;;;;3.70;1.70;;;16.90;99.90;;;17.58;100.00;97933.69;5024047;28;20495;-82
2023/08/05 08:56:40;;;;;;;3.03;1.50;;;16.90;99.90;;;17.65;100.00;97924.81;5023167;28;20467;-83
2023/08/05 08:59:09;;;;;;;2.43;1.70;;;17.00;99.90;;;17.71;100.00;97934.47;5024435;28;20473;-82
2023/08/05 09:01:42;;;;;;;1.83;1.40;;;17.00;99.90;;;17.75;100.00;97930.31;5022600;28;20458;-83
2023/08/05 09:04:14;;;;;;;2.23;1.90;;;17.10;99.90;;;17.82;100.00;97925.69;5021026;28;20976;-82
2023/08/05 09:06:47;;;;;;;3.67;1.87;;;17.20;99.90;;;17.87;100.00;97928.44;5025464;28;20470;-82
2023/08/05 09:09:18;;;;;;;2.50;1.70;;;17.30;99.90;;;17.91;100.00;97924.28;5022794;28;20485;-82
2023/08/05 09:11:49;;;;;;;2.60;1.70;;;17.30;99.90;;;17.94;100.00;97927.25;5025581;28;20498;-83
2023/08/05 09:14:20;;;;;;;1.63;1.50;;;17.30;99.90;;;17.99;100.00;97922.03;5023827;28;21039;-82
2023/08/05 09:17:00;;;;;;;2.00;1.50;;;17.30;99.90;;;18.02;100.00;97923.41;5025411;28;20462;-82
2023/08/05 09:19:31;;;;;;;1.63;1.47;;;17.40;99.90;;;18.09;100.00;97921.41;5026543;28;20465;-82
2023/08/05 09:22:03;;;;;;;6.33;1.57;;;17.40;99.90;;;18.13;100.00;97911.97;5024090;28;20489;-83
2023/08/05 09:24:35;;;;;;;1.80;1.53;;;17.50;99.90;;;18.19;100.00;97911.00;5025511;28;20975;-82
2023/08/05 09:27:05;;;;;;;3.80;1.53;;;17.50;99.90;;;18.23;100.00;97914.78;5025457;28;20893;-82
2023/08/05 09:29:37;;;;;;;1.97;1.50;;;17.60;99.90;;;18.27;100.00;97917.75;5025156;28;20516;-82
2023/08/05 09:32:09;;;;;;;6.73;1.57;;;17.60;99.90;;;18.30;100.00;97907.50;5024968;28;20459;-83
2023/08/05 09:34:45;;;;;;;1.97;1.53;;;17.60;99.90;;;18.37;100.00;97909.97;5022903;28;20554;-83
2023/08/05 09:37:14;;;;;;;2.20;1.40;;;17.80;99.90;;;18.45;100.00;97901.66;5021610;28;20952;-83
2023/08/05 09:39:45;;;;;;;5.33;2.17;;;17.80;99.90;;;18.50;100.00;97894.59;5023544;28;20473;-83
2023/08/05 09:42:24;;;;;;;1.90;1.63;;;17.90;99.90;;;18.60;100.00;97894.00;5022254;28;20569;-82
2023/08/05 09:44:55;;;;;;;1.50;1.30;;;17.90;99.90;;;18.68;100.00;97901.50;5022872;28;20469;-82
2023/08/05 09:47:30;;;;;;;2.23;1.60;;;18.00;99.90;;;18.73;100.00;97890.19;5021872;28;20557;-83
2023/08/05 09:50:05;;;;;;;1.80;1.40;;;18.10;99.90;;;18.75;100.00;97901.34;5021078;28;20462;-82
2023/08/05 09:52:39;;;;;;;8.30;1.50;;;18.10;99.90;;;18.78;100.00;97903.53;5021561;28;20533;-83
2023/08/05 09:55:15;;;;;;;2.30;1.47;;;18.10;99.90;;;18.79;100.00;97899.81;5021799;28;20520;-83
2023/08/05 09:57:45;;;;;;;2.43;1.53;;;18.20;99.90;;;18.76;100.00;97889.72;5022903;28;20474;-82
2023/08/05 10:00:16;;;;;;;1.83;1.50;;;18.30;99.90;;;18.76;100.00;97895.81;5023891;28;20481;-82
2023/08/05 10:02:46;;;;;;;1.40;1.30;;;18.40;99.90;;;18.79;100.00;97895.31;5022026;28;20465;-83
2023/08/05 10:05:17;;;;;;;1.67;1.37;;;18.20;99.90;;;18.81;100.00;97892.44;5024222;28;20553;-82
2023/08/05 10:07:46;;;;;;;4.53;1.50;;;18.30;99.90;;;18.86;100.00;97889.84;5021709;28;20462;-83
2023/08/05 10:10:19;;;;;;;4.97;1.70;;;18.30;99.90;;;18.88;100.00;97890.41;5021887;28;20462;-83
2023/08/05 10:12:53;;;;;;;1.60;1.50;;;18.20;99.90;;;18.89;100.00;97881.41;5021436;28;20470;-83
2023/08/05 10:15:30;;;;;;;1.80;1.50;;;18.20;99.90;;;18.87;100.00;97886.97;5022091;28;20937;-83
2023/08/05 10:18:00;;;;;;;3.13;1.73;;;18.10;99.90;;;18.88;100.00;97879.81;5022700;28;20465;-83
2023/08/05 10:20:36;;;;;;;3.60;1.70;;;18.10;99.90;;;18.96;100.00;97882.03;5022914;28;20691;-83
2023/08/05 10:23:08;;;;;;;3.33;1.47;;;18.30;99.90;;;18.98;100.00;97869.34;5023502;28;20481;-83
2023/08/05 10:25:43;;;;;;;1.90;1.30;;;18.30;99.90;;;19.01;100.00;97871.50;5023301;28;20964;-83
2023/08/05 10:28:50;;;;;;;1.57;1.47;;;18.30;99.90;;;19.01;100.00;97871.50;5023863;28;20524;-83